sensor_id;sensor_type;location;lat;lon;timestamp;pressure;altitude;pressure_sealevel;temperature;humidity
79463;BME280;68931;47.286;18.756;2023-08-20T00:00:26;100938.63;;;20.01;95.15
79463;BME280;68931;47.286;18.756;2023-08-20T00:01:04;100954.38;;;20.13;95.29
79463;BME280;68931;47.286;18.756;2023-08-20T00:01:36;100952.81;;;20.11;94.59
79463;BME280;68931;47.286;18.756;2023-08-20T00:02:08;100958.00;;;20.12;94.48
79463;BME280;68931;47.286;18.756;2023-08-20T00:02:42;100960.81;;;20.11;94.70
79463;BME280;68931;47.286;18.756;2023-08-20T00:03:15;100942.56;;;20.06;95.36
79463;BME280;68931;47.286;18.756;2023-08-20T00:03:48;100940.44;;;20.00;94.80
79463;BME280;68931;47.286;18.756;2023-08-20T00:04:22;100953.91;;;20.08;95.00
79463;BME280;68931;47.286;18.756;2023-08-20T00:04:58;100954.06;;;20.07;94.59
79463;BME280;68931;47.286;18.756;2023-08-20T00:05:31;100956.03;;;20.05;94.62
79463;BME280;68931;47.286;18.756;2023-08-20T00:06:03;100957.69;;;20.06;95.14
79463;BME280;68931;47.286;18.756;2023-08-20T00:06:36;100955.19;;;20.04;95.28
79463;BME280;68931;47.286;18.756;2023-08-20T00:07:08;100957.84;;;20.04;94.86
79463;BME280;68931;47.286;18.756;2023-08-20T00:07:40;100954.34;;;20.04;95.56
79463;BME280;68931;47.286;18.756;2023-08-20T00:08:12;100950.38;;;19.98;94.73
79463;BME280;68931;47.286;18.756;2023-08-20T00:08:44;100957.41;;;19.99;95.36
79463;BME280;68931;47.286;18.756;2023-08-20T00:09:16;100958.38;;;19.98;95.33
79463;BME280;68931;47.286;18.756;2023-08-20T00:09:48;100960.06;;;19.99;95.00
79463;BME280;68931;47.286;18.756;2023-08-20T00:10:20;100953.63;;;19.92;95.53
79463;BME280;68931;47.286;18.756;2023-08-20T00:10:52;100954.59;;;19.91;95.22
79463;BME280;68931;47.286;18.756;2023-08-20T00:11:24;100968.34;;;19.96;95.53
79463;BME280;68931;47.286;18.756;2023-08-20T00:11:57;100953.75;;;19.90;95.54
79463;BME280;68931;47.286;18.756;2023-08-20T00:12:29;100958.09;;;19.91;95.05
79463;BME280;68931;47.286;18.756;2023-08-20T00:13:01;100958.81;;;19.94;95.47
79463;BME280;68931;47.286;18.756;2023-08-20T00:13:33;100954.59;;;19.91;95.52
79463;BME280;68931;47.286;18.756;2023-08-20T00:14:04;100953.75;;;19.90;95.30
79463;BME280;68931;47.286;18.756;2023-08-20T00:14:56;100949.25;;;19.91;95.70
79463;BME280;68931;47.286;18.756;2023-08-20T00:15:30;100943.06;;;19.81;95.25
79463;BME280;68931;47.286;18.756;2023-08-20T00:16:02;100950.38;;;19.88;95.89
79463;BME280;68931;47.286;18.756;2023-08-20T00:16:35;100957.38;;;19.89;95.89
79463;BME280;68931;47.286;18.756;2023-08-20T00:17:07;100946.03;;;19.87;95.92
79463;BME280;68931;47.286;18.756;2023-08-20T00:17:40;100944.06;;;19.89;95.53
79463;BME280;68931;47.286;18.756;2023-08-20T00:18:13;100939.72;;;19.88;95.96
79463;BME280;68931;47.286;18.756;2023-08-20T00:18:45;100940.84;;;19.86;95.90
79463;BME280;68931;47.286;18.756;2023-08-20T00:19:17;100932.41;;;19.81;95.77
79463;BME280;68931;47.286;18.756;2023-08-20T00:19:50;100943.22;;;19.89;96.00
79463;BME280;68931;47.286;18.756;2023-08-20T00:20:22;100954.31;;;19.94;95.75
79463;BME280;68931;47.286;18.756;2023-08-20T00:20:55;100945.75;;;19.90;95.85
79463;BME280;68931;47.286;18.756;2023-08-20T00:21:27;100953.47;;;19.94;95.71
79463;BME280;68931;47.286;18.756;2023-08-20T00:22:00;100950.25;;;19.90;95.66
79463;BME280;68931;47.286;18.756;2023-08-20T00:22:32;100948.53;;;19.89;96.28
79463;BME280;68931;47.286;18.756;2023-08-20T00:23:04;100951.94;;;19.91;95.77
79463;BME280;68931;47.286;18.756;2023-08-20T00:23:36;100946.59;;;19.91;95.88
79463;BME280;68931;47.286;18.756;2023-08-20T00:24:09;100943.38;;;19.87;95.63
79463;BME280;68931;47.286;18.756;2023-08-20T00:24:42;100944.78;;;19.91;95.78
79463;BME280;68931;47.286;18.756;2023-08-20T00:25:15;100942.81;;;19.94;95.76
79463;BME280;68931;47.286;18.756;2023-08-20T00:25:53;100953.34;;;19.95;95.79
79463;BME280;68931;47.286;18.756;2023-08-20T00:26:28;100931.03;;;19.86;95.81
79463;BME280;68931;47.286;18.756;2023-08-20T00:27:00;100945.50;;;19.94;95.69
79463;BME280;68931;47.286;18.756;2023-08-20T00:27:32;100936.22;;;19.88;96.03
79463;BME280;68931;47.286;18.756;2023-08-20T00:28:05;100949.97;;;19.93;96.27
79463;BME280;68931;47.286;18.756;2023-08-20T00:28:37;100936.63;;;19.83;95.54
79463;BME280;68931;47.286;18.756;2023-08-20T00:29:10;100940.56;;;19.89;95.89
79463;BME280;68931;47.286;18.756;2023-08-20T00:29:42;100946.72;;;19.89;95.50
79463;BME280;68931;47.286;18.756;2023-08-20T00:30:14;100945.22;;;19.87;95.51
79463;BME280;68931;47.286;18.756;2023-08-20T00:30:49;100951.50;;;19.86;95.60
79463;BME280;68931;47.286;18.756;2023-08-20T00:31:21;100945.34;;;19.85;95.41
79463;BME280;68931;47.286;18.756;2023-08-20T00:31:56;100941.13;;;19.83;95.53
79463;BME280;68931;47.286;18.756;2023-08-20T00:32:28;100941.97;;;19.83;96.04
79463;BME280;68931;47.286;18.756;2023-08-20T00:33:00;100944.75;;;19.82;95.49
79463;BME280;68931;47.286;18.756;2023-08-20T00:33:32;100940.28;;;19.82;95.74
79463;BME280;68931;47.286;18.756;2023-08-20T00:34:04;100947.41;;;19.82;96.04
79463;BME280;68931;47.286;18.756;2023-08-20T00:34:37;100955.53;;;19.80;95.69
79463;BME280;68931;47.286;18.756;2023-08-20T00:35:09;100940.13;;;19.74;95.70
79463;BME280;68931;47.286;18.756;2023-08-20T00:35:41;100948.38;;;19.81;95.36
79463;BME280;68931;47.286;18.756;2023-08-20T00:36:13;100949.53;;;19.78;95.43
79463;BME280;68931;47.286;18.756;2023-08-20T00:36:45;100928.19;;;19.69;95.33
79463;BME280;68931;47.286;18.756;2023-08-20T00:37:18;100941.94;;;19.74;95.85
79463;BME280;68931;47.286;18.756;2023-08-20T00:37:50;100930.88;;;19.69;95.96
79463;BME280;68931;47.286;18.756;2023-08-20T00:38:22;100928.19;;;19.69;95.68
79463;BME280;68931;47.286;18.756;2023-08-20T00:38:54;100947.84;;;19.77;95.69
79463;BME280;68931;47.286;18.756;2023-08-20T00:39:26;100944.47;;;19.75;95.52
79463;BME280;68931;47.286;18.756;2023-08-20T00:39:58;100944.47;;;19.75;95.78
79463;BME280;68931;47.286;18.756;2023-08-20T00:40:30;100948.09;;;19.74;96.36
79463;BME280;68931;47.286;18.756;2023-08-20T00:41:03;100944.59;;;19.74;96.55
79463;BME280;68931;47.286;18.756;2023-08-20T00:41:35;100948.09;;;19.74;95.92
79463;BME280;68931;47.286;18.756;2023-08-20T00:42:07;100944.59;;;19.74;96.30
79463;BME280;68931;47.286;18.756;2023-08-20T00:42:39;100926.78;;;19.65;95.97
79463;BME280;68931;47.286;18.756;2023-08-20T00:43:11;100939.53;;;19.71;96.39
79463;BME280;68931;47.286;18.756;2023-08-20T00:43:43;100941.22;;;19.72;95.83
79463;BME280;68931;47.286;18.756;2023-08-20T00:44:15;100944.72;;;19.72;95.94
79463;BME280;68931;47.286;18.756;2023-08-20T00:44:47;100937.88;;;19.70;95.93
79463;BME280;68931;47.286;18.756;2023-08-20T00:45:19;100936.31;;;19.67;95.94
79463;BME280;68931;47.286;18.756;2023-08-20T00:45:52;100939.81;;;19.68;95.88
79463;BME280;68931;47.286;18.756;2023-08-20T00:46:24;100938.13;;;19.67;96.63
79463;BME280;68931;47.286;18.756;2023-08-20T00:46:56;100928.28;;;19.58;96.63
79463;BME280;68931;47.286;18.756;2023-08-20T00:47:28;100926.75;;;19.55;96.20
79463;BME280;68931;47.286;18.756;2023-08-20T00:48:01;100937.41;;;19.65;96.63
79463;BME280;68931;47.286;18.756;2023-08-20T00:48:34;100932.34;;;19.62;96.48
79463;BME280;68931;47.286;18.756;2023-08-20T00:49:06;100933.19;;;19.62;96.07
79463;BME280;68931;47.286;18.756;2023-08-20T00:49:39;100929.28;;;19.57;96.47
79463;BME280;68931;47.286;18.756;2023-08-20T00:50:11;100934.34;;;19.60;96.11
79463;BME280;68931;47.286;18.756;2023-08-20T00:50:44;100922.56;;;19.52;96.49
79463;BME280;68931;47.286;18.756;2023-08-20T00:51:16;100946.38;;;19.64;95.93
79463;BME280;68931;47.286;18.756;2023-08-20T00:51:50;100936.28;;;19.58;95.96
79463;BME280;68931;47.286;18.756;2023-08-20T00:52:22;100935.31;;;19.59;96.39
79463;BME280;68931;47.286;18.756;2023-08-20T00:52:57;100934.59;;;19.57;96.15
79463;BME280;68931;47.286;18.756;2023-08-20T00:53:29;100945.81;;;19.60;96.22
79463;BME280;68931;47.286;18.756;2023-08-20T00:54:02;100938.41;;;19.64;96.20
79463;BME280;68931;47.286;18.756;2023-08-20T00:54:35;100936.72;;;19.63;96.51
79463;BME280;68931;47.286;18.756;2023-08-20T00:55:10;100943.84;;;19.62;96.21
79463;BME280;68931;47.286;18.756;2023-08-20T00:55:43;100932.66;;;19.59;96.30
79463;BME280;68931;47.286;18.756;2023-08-20T00:56:18;100934.03;;;19.63;96.86
79463;BME280;68931;47.286;18.756;2023-08-20T00:56:50;100933.19;;;19.62;96.87
79463;BME280;68931;47.286;18.756;2023-08-20T00:57:26;100938.41;;;19.64;96.44
79463;BME280;68931;47.286;18.756;2023-08-20T00:57:58;100925.63;;;19.58;96.73
79463;BME280;68931;47.286;18.756;2023-08-20T00:58:30;100924.91;;;19.56;96.45
79463;BME280;68931;47.286;18.756;2023-08-20T00:59:04;100924.91;;;19.56;96.99
79463;BME280;68931;47.286;18.756;2023-08-20T00:59:39;100948.06;;;19.65;96.91
79463;BME280;68931;47.286;18.756;2023-08-20T01:00:12;100940.94;;;19.65;96.55
79463;BME280;68931;47.286;18.756;2023-08-20T01:00:44;100934.03;;;19.63;96.46
79463;BME280;68931;47.286;18.756;2023-08-20T01:01:16;100932.53;;;19.60;96.40
79463;BME280;68931;47.286;18.756;2023-08-20T01:01:49;100942.03;;;19.63;96.02
79463;BME280;68931;47.286;18.756;2023-08-20T01:02:21;100935.31;;;19.59;96.40
79463;BME280;68931;47.286;18.756;2023-08-20T01:02:53;100954.09;;;19.67;96.83
79463;BME280;68931;47.286;18.756;2023-08-20T01:03:25;100925.63;;;19.58;96.69
79463;BME280;68931;47.286;18.756;2023-08-20T01:03:57;100935.72;;;19.64;96.47
79463;BME280;68931;47.286;18.756;2023-08-20T01:04:30;100947.81;;;19.68;96.85
79463;BME280;68931;47.286;18.756;2023-08-20T01:05:04;100948.66;;;19.68;96.93
79463;BME280;68931;47.286;18.756;2023-08-20T01:05:46;100935.84;;;19.62;96.46
79463;BME280;68931;47.286;18.756;2023-08-20T01:07:26;100944.44;;;19.66;96.10
79463;BME280;68931;47.286;18.756;2023-08-20T01:08:09;100948.78;;;19.67;96.19
79463;BME280;68931;47.286;18.756;2023-08-20T01:08:47;100940.09;;;19.65;96.02
79463;BME280;68931;47.286;18.756;2023-08-20T01:09:51;100946.97;;;19.67;95.86
79463;BME280;68931;47.286;18.756;2023-08-20T01:10:52;100945.53;;;19.63;95.36
79463;BME280;68931;47.286;18.756;2023-08-20T01:11:31;100948.63;;;19.59;95.91
79463;BME280;68931;47.286;18.756;2023-08-20T01:12:06;100940.06;;;19.55;95.56
79463;BME280;68931;47.286;18.756;2023-08-20T01:12:38;100947.78;;;19.58;95.52
79463;BME280;68931;47.286;18.756;2023-08-20T01:13:11;100937.94;;;19.49;95.95
79463;BME280;68931;47.286;18.756;2023-08-20T01:13:43;100953.22;;;19.57;95.24
79463;BME280;68931;47.286;18.756;2023-08-20T01:14:16;100950.56;;;19.57;95.72
79463;BME280;68931;47.286;18.756;2023-08-20T01:14:48;100945.50;;;19.53;95.83
79463;BME280;68931;47.286;18.756;2023-08-20T01:15:20;100939.84;;;19.47;95.77
79463;BME280;68931;47.286;18.756;2023-08-20T01:15:52;100946.50;;;19.52;95.57
79463;BME280;68931;47.286;18.756;2023-08-20T01:16:24;100932.97;;;19.44;95.30
79463;BME280;68931;47.286;18.756;2023-08-20T01:16:56;100951.81;;;19.52;95.79
79463;BME280;68931;47.286;18.756;2023-08-20T01:17:28;100936.63;;;19.43;95.76
79463;BME280;68931;47.286;18.756;2023-08-20T01:18:00;100946.50;;;19.52;95.50
79463;BME280;68931;47.286;18.756;2023-08-20T01:18:33;100944.94;;;19.50;96.02
79463;BME280;68931;47.286;18.756;2023-08-20T01:19:05;100932.28;;;19.42;96.17
79463;BME280;68931;47.286;18.756;2023-08-20T01:19:39;100915.44;;;19.32;95.88
79463;BME280;68931;47.286;18.756;2023-08-20T01:20:12;100946.16;;;19.46;95.55
79463;BME280;68931;47.286;18.756;2023-08-20T01:20:54;100954.50;;;19.52;96.23
79463;BME280;68931;47.286;18.756;2023-08-20T01:21:41;100948.44;;;19.50;95.76
79463;BME280;68931;47.286;18.756;2023-08-20T01:23:30;100949.84;;;19.54;95.71
79463;BME280;68931;47.286;18.756;2023-08-20T01:27:24;100942.16;;;19.51;96.08
79463;BME280;68931;47.286;18.756;2023-08-20T01:28:49;100943.41;;;19.57;96.60
79463;BME280;68931;47.286;18.756;2023-08-20T01:29:21;100935.16;;;19.50;96.27
79463;BME280;68931;47.286;18.756;2023-08-20T01:29:55;100949.72;;;19.56;96.37
79463;BME280;68931;47.286;18.756;2023-08-20T01:30:27;100948.03;;;19.55;95.65
79463;BME280;68931;47.286;18.756;2023-08-20T01:31:00;100940.06;;;19.55;96.11
79463;BME280;68931;47.286;18.756;2023-08-20T01:31:33;100944.81;;;19.51;96.02
79463;BME280;68931;47.286;18.756;2023-08-20T01:32:07;100951.97;;;19.51;95.65
79463;BME280;68931;47.286;18.756;2023-08-20T01:32:40;100951.38;;;19.47;95.79
79463;BME280;68931;47.286;18.756;2023-08-20T01:33:14;100945.28;;;19.45;96.00
79463;BME280;68931;47.286;18.756;2023-08-20T01:33:46;100949.78;;;19.45;95.57
79463;BME280;68931;47.286;18.756;2023-08-20T01:34:18;100951.25;;;19.49;95.53
79463;BME280;68931;47.286;18.756;2023-08-20T01:34:53;100953.06;;;19.48;95.78
79463;BME280;68931;47.286;18.756;2023-08-20T01:35:28;100955.59;;;19.50;95.88
79463;BME280;68931;47.286;18.756;2023-08-20T01:36:00;100945.06;;;19.48;95.33
79463;BME280;68931;47.286;18.756;2023-08-20T01:36:32;100946.16;;;19.46;95.61
79463;BME280;68931;47.286;18.756;2023-08-20T01:37:04;100944.03;;;19.40;95.84
79463;BME280;68931;47.286;18.756;2023-08-20T01:37:36;100959.44;;;19.46;96.10
79463;BME280;68931;47.286;18.756;2023-08-20T01:38:08;100955.94;;;19.45;95.86
79463;BME280;68931;47.286;18.756;2023-08-20T01:38:40;100961.13;;;19.47;96.01
79463;BME280;68931;47.286;18.756;2023-08-20T01:39:12;100956.91;;;19.44;95.92
79463;BME280;68931;47.286;18.756;2023-08-20T01:39:45;100960.28;;;19.46;95.51
79463;BME280;68931;47.286;18.756;2023-08-20T01:40:17;100963.94;;;19.45;95.39
79463;BME280;68931;47.286;18.756;2023-08-20T01:40:49;100947.53;;;19.40;95.28
79463;BME280;68931;47.286;18.756;2023-08-20T01:41:21;100963.94;;;19.45;95.96
79463;BME280;68931;47.286;18.756;2023-08-20T01:41:53;100959.56;;;19.44;96.00
79463;BME280;68931;47.286;18.756;2023-08-20T01:42:28;100960.28;;;19.46;95.79
79463;BME280;68931;47.286;18.756;2023-08-20T01:43:00;100969.03;;;19.48;95.44
79463;BME280;68931;47.286;18.756;2023-08-20T01:43:32;100965.53;;;19.48;95.38
79463;BME280;68931;47.286;18.756;2023-08-20T01:44:07;100960.06;;;19.49;96.05
79463;BME280;68931;47.286;18.756;2023-08-20T01:44:39;100965.41;;;19.49;95.56
79463;BME280;68931;47.286;18.756;2023-08-20T01:45:11;100968.06;;;19.49;95.30
79463;BME280;68931;47.286;18.756;2023-08-20T01:45:43;100960.28;;;19.46;95.36
79463;BME280;68931;47.286;18.756;2023-08-20T01:46:17;100961.13;;;19.47;95.66
79463;BME280;68931;47.286;18.756;2023-08-20T01:46:50;100956.91;;;19.44;96.16
79463;BME280;68931;47.286;18.756;2023-08-20T01:47:22;100968.19;;;19.48;95.82
79463;BME280;68931;47.286;18.756;2023-08-20T01:47:54;100963.72;;;19.48;95.77
79463;BME280;68931;47.286;18.756;2023-08-20T01:48:26;100957.53;;;19.48;95.47
79463;BME280;68931;47.286;18.756;2023-08-20T01:48:58;100961.13;;;19.47;95.58
79463;BME280;68931;47.286;18.756;2023-08-20T01:49:30;100960.44;;;19.45;95.58
79463;BME280;68931;47.286;18.756;2023-08-20T01:50:02;100957.75;;;19.45;95.64
79463;BME280;68931;47.286;18.756;2023-08-20T01:50:36;100960.28;;;19.46;95.51
79463;BME280;68931;47.286;18.756;2023-08-20T01:51:08;100960.19;;;19.48;95.82
79463;BME280;68931;47.286;18.756;2023-08-20T01:51:41;100947.28;;;19.43;95.61
79463;BME280;68931;47.286;18.756;2023-08-20T01:52:13;100967.09;;;19.50;95.79
79463;BME280;68931;47.286;18.756;2023-08-20T01:52:45;100950.63;;;19.45;95.75
79463;BME280;68931;47.286;18.756;2023-08-20T01:53:17;100959.44;;;19.46;95.47
79463;BME280;68931;47.286;18.756;2023-08-20T01:53:49;100962.00;;;19.47;95.78
79463;BME280;68931;47.286;18.756;2023-08-20T01:54:21;100967.34;;;19.47;95.45
79463;BME280;68931;47.286;18.756;2023-08-20T01:54:53;100958.38;;;19.48;95.20
79463;BME280;68931;47.286;18.756;2023-08-20T01:55:25;100953.69;;;19.41;95.49
79463;BME280;68931;47.286;18.756;2023-08-20T01:55:58;100963.81;;;19.47;96.03
79463;BME280;68931;47.286;18.756;2023-08-20T01:56:30;100967.34;;;19.47;95.75
79463;BME280;68931;47.286;18.756;2023-08-20T01:57:02;100934.19;;;19.31;95.43
79463;BME280;68931;47.286;18.756;2023-08-20T01:57:36;100931.53;;;19.31;95.83
79463;BME280;68931;47.286;18.756;2023-08-20T01:58:08;100962.97;;;19.46;95.76
79463;BME280;68931;47.286;18.756;2023-08-20T01:58:40;100967.44;;;19.46;95.59
79463;BME280;68931;47.286;18.756;2023-08-20T01:59:12;100952.72;;;19.42;95.73
79463;BME280;68931;47.286;18.756;2023-08-20T01:59:44;100960.28;;;19.46;95.41
79463;BME280;68931;47.286;18.756;2023-08-20T02:00:16;100960.28;;;19.46;95.67
79463;BME280;68931;47.286;18.756;2023-08-20T02:00:48;100956.78;;;19.46;94.98
79463;BME280;68931;47.286;18.756;2023-08-20T02:01:20;100961.13;;;19.47;95.23
79463;BME280;68931;47.286;18.756;2023-08-20T02:01:52;100954.25;;;19.44;95.26
79463;BME280;68931;47.286;18.756;2023-08-20T02:02:24;100960.28;;;19.46;95.41
79463;BME280;68931;47.286;18.756;2023-08-20T02:02:56;100921.25;;;19.26;95.07
79463;BME280;68931;47.286;18.756;2023-08-20T02:03:29;100953.28;;;19.45;95.10
79463;BME280;68931;47.286;18.756;2023-08-20T02:04:01;100955.81;;;19.47;94.97
79463;BME280;68931;47.286;18.756;2023-08-20T02:04:33;100952.44;;;19.45;95.31
79463;BME280;68931;47.286;18.756;2023-08-20T02:05:06;100956.22;;;19.42;94.95
79463;BME280;68931;47.286;18.756;2023-08-20T02:05:38;100947.97;;;19.45;95.49
79463;BME280;68931;47.286;18.756;2023-08-20T02:06:10;100955.81;;;19.47;95.19
79463;BME280;68931;47.286;18.756;2023-08-20T02:06:42;100953.28;;;19.45;95.55
79463;BME280;68931;47.286;18.756;2023-08-20T02:07:14;100947.66;;;19.39;95.38
79463;BME280;68931;47.286;18.756;2023-08-20T02:07:46;100948.63;;;19.38;95.25
79463;BME280;68931;47.286;18.756;2023-08-20T02:08:17;100952.00;;;19.40;95.20
79463;BME280;68931;47.286;18.756;2023-08-20T02:08:50;100956.06;;;19.44;95.57
79463;BME280;68931;47.286;18.756;2023-08-20T02:09:22;100955.25;;;19.43;94.99
79463;BME280;68931;47.286;18.756;2023-08-20T02:09:54;100953.56;;;19.42;95.06
79463;BME280;68931;47.286;18.756;2023-08-20T02:10:26;100935.75;;;19.33;95.28
79463;BME280;68931;47.286;18.756;2023-08-20T02:11:01;100952.59;;;19.43;94.89
79463;BME280;68931;47.286;18.756;2023-08-20T02:11:34;100944.16;;;19.38;95.05
79463;BME280;68931;47.286;18.756;2023-08-20T02:12:07;100953.69;;;19.41;94.98
79463;BME280;68931;47.286;18.756;2023-08-20T02:12:40;100945.41;;;19.34;94.90
79463;BME280;68931;47.286;18.756;2023-08-20T02:13:13;100946.25;;;19.35;94.92
79463;BME280;68931;47.286;18.756;2023-08-20T02:13:45;100943.72;;;19.33;94.86
79463;BME280;68931;47.286;18.756;2023-08-20T02:14:17;100955.78;;;19.37;95.20
79463;BME280;68931;47.286;18.756;2023-08-20T02:14:49;100947.38;;;19.32;95.06
79463;BME280;68931;47.286;18.756;2023-08-20T02:15:21;100943.59;;;19.35;95.13
79463;BME280;68931;47.286;18.756;2023-08-20T02:16:03;100948.63;;;19.38;95.00
79463;BME280;68931;47.286;18.756;2023-08-20T02:16:35;100934.91;;;19.33;95.09
79463;BME280;68931;47.286;18.756;2023-08-20T02:17:08;100942.88;;;19.33;95.00
79463;BME280;68931;47.286;18.756;2023-08-20T02:17:43;100946.38;;;19.33;94.98
79463;BME280;68931;47.286;18.756;2023-08-20T02:18:15;100932.50;;;19.30;94.83
79463;BME280;68931;47.286;18.756;2023-08-20T02:18:48;100945.41;;;19.34;94.90
79463;BME280;68931;47.286;18.756;2023-08-20T02:19:20;100952.13;;;19.38;94.98
79463;BME280;68931;47.286;18.756;2023-08-20T02:19:52;100945.13;;;19.37;94.83
79463;BME280;68931;47.286;18.756;2023-08-20T02:20:24;100953.81;;;19.39;95.17
79463;BME280;68931;47.286;18.756;2023-08-20T02:20:58;100947.78;;;19.37;94.81
79463;BME280;68931;47.286;18.756;2023-08-20T02:21:30;100950.44;;;19.37;94.71
79463;BME280;68931;47.286;18.756;2023-08-20T02:22:02;100944.69;;;19.32;95.21
79463;BME280;68931;47.286;18.756;2023-08-20T02:22:34;100939.94;;;19.36;95.15
79463;BME280;68931;47.286;18.756;2023-08-20T02:23:32;100937.56;;;19.33;94.91
79463;BME280;68931;47.286;18.756;2023-08-20T02:24:04;100941.75;;;19.35;95.45
79463;BME280;68931;47.286;18.756;2023-08-20T02:24:37;100927.31;;;19.28;95.40
79463;BME280;68931;47.286;18.756;2023-08-20T02:25:08;100938.28;;;19.35;94.97
79463;BME280;68931;47.286;18.756;2023-08-20T02:25:40;100943.72;;;19.33;95.33
79463;BME280;68931;47.286;18.756;2023-08-20T02:26:12;100946.50;;;19.32;95.17
79463;BME280;68931;47.286;18.756;2023-08-20T02:26:47;100938.06;;;19.27;95.76
79463;BME280;68931;47.286;18.756;2023-08-20T02:27:19;100933.59;;;19.27;95.63
79463;BME280;68931;47.286;18.756;2023-08-20T02:27:51;100915.59;;;19.10;95.62
79463;BME280;68931;47.286;18.756;2023-08-20T02:28:24;100948.22;;;19.33;96.08
79463;BME280;68931;47.286;18.756;2023-08-20T02:28:55;100948.22;;;19.33;95.76
79463;BME280;68931;47.286;18.756;2023-08-20T02:29:28;100942.28;;;19.29;95.31
79463;BME280;68931;47.286;18.756;2023-08-20T02:30:00;100947.38;;;19.32;95.71
79463;BME280;68931;47.286;18.756;2023-08-20T02:30:32;100936.41;;;19.26;95.64
79463;BME280;68931;47.286;18.756;2023-08-20T02:31:05;100948.34;;;19.31;96.04
79463;BME280;68931;47.286;18.756;2023-08-20T02:31:37;100943.00;;;19.31;95.91
79463;BME280;68931;47.286;18.756;2023-08-20T02:32:12;100949.06;;;19.33;96.02
79463;BME280;68931;47.286;18.756;2023-08-20T02:32:44;100936.66;;;19.23;95.31
79463;BME280;68931;47.286;18.756;2023-08-20T02:33:16;100947.38;;;19.32;95.45
79463;BME280;68931;47.286;18.756;2023-08-20T02:33:48;100950.88;;;19.33;95.29
79463;BME280;68931;47.286;18.756;2023-08-20T02:34:20;100940.34;;;19.31;95.42
79463;BME280;68931;47.286;18.756;2023-08-20T02:34:53;100940.47;;;19.30;95.44
79463;BME280;68931;47.286;18.756;2023-08-20T02:35:25;100931.34;;;19.23;95.81
79463;BME280;68931;47.286;18.756;2023-08-20T02:36:03;100931.22;;;19.24;95.56
79463;BME280;68931;47.286;18.756;2023-08-20T02:36:35;100943.97;;;19.30;95.54
79463;BME280;68931;47.286;18.756;2023-08-20T02:37:07;100945.66;;;19.31;95.67
79463;BME280;68931;47.286;18.756;2023-08-20T02:37:39;100935.81;;;19.22;95.86
79463;BME280;68931;47.286;18.756;2023-08-20T02:38:13;100943.41;;;19.27;95.45
79463;BME280;68931;47.286;18.756;2023-08-20T02:38:46;100948.72;;;19.27;95.75
79463;BME280;68931;47.286;18.756;2023-08-20T02:39:18;100944.53;;;19.24;95.85
79463;BME280;68931;47.286;18.756;2023-08-20T02:39:53;100947.31;;;19.23;95.32
79463;BME280;68931;47.286;18.756;2023-08-20T02:40:25;100945.50;;;19.23;95.57
79463;BME280;68931;47.286;18.756;2023-08-20T02:40:57;100936.66;;;19.23;95.37
79463;BME280;68931;47.286;18.756;2023-08-20T02:41:29;100930.88;;;19.17;95.55
79463;BME280;68931;47.286;18.756;2023-08-20T02:42:01;100930.06;;;19.17;95.48
79463;BME280;68931;47.286;18.756;2023-08-20T02:42:33;100935.56;;;19.25;95.55
79463;BME280;68931;47.286;18.756;2023-08-20T02:43:05;100937.63;;;19.22;95.47
79463;BME280;68931;47.286;18.756;2023-08-20T02:43:37;100932.44;;;19.20;95.62
79463;BME280;68931;47.286;18.756;2023-08-20T02:44:09;100946.34;;;19.24;95.60
79463;BME280;68931;47.286;18.756;2023-08-20T02:44:41;100938.47;;;19.22;95.15
79463;BME280;68931;47.286;18.756;2023-08-20T02:45:13;100942.97;;;19.22;95.29
79463;BME280;68931;47.286;18.756;2023-08-20T02:45:45;100937.06;;;19.18;95.38
79463;BME280;68931;47.286;18.756;2023-08-20T02:46:17;100941.03;;;19.24;95.57
79463;BME280;68931;47.286;18.756;2023-08-20T02:46:49;100948.88;;;19.25;95.13
79463;BME280;68931;47.286;18.756;2023-08-20T02:47:21;100933.16;;;19.22;95.04
79463;BME280;68931;47.286;18.756;2023-08-20T02:47:53;100952.94;;;19.29;94.93
79463;BME280;68931;47.286;18.756;2023-08-20T02:48:25;100933.16;;;19.22;95.17
79463;BME280;68931;47.286;18.756;2023-08-20T02:48:58;100942.56;;;19.26;95.23
79463;BME280;68931;47.286;18.756;2023-08-20T02:49:30;100943.69;;;19.24;95.17
79463;BME280;68931;47.286;18.756;2023-08-20T02:50:02;100949.44;;;19.29;94.78
79463;BME280;68931;47.286;18.756;2023-08-20T02:50:36;100941.75;;;19.26;94.96
79463;BME280;68931;47.286;18.756;2023-08-20T02:51:10;100946.22;;;19.25;95.07
79463;BME280;68931;47.286;18.756;2023-08-20T02:51:43;100951.00;;;19.31;95.09
79463;BME280;68931;47.286;18.756;2023-08-20T02:52:15;100948.59;;;19.28;95.19
79463;BME280;68931;47.286;18.756;2023-08-20T02:52:47;100931.59;;;19.20;94.83
79463;BME280;68931;47.286;18.756;2023-08-20T02:53:19;100923.44;;;19.11;95.21
79463;BME280;68931;47.286;18.756;2023-08-20T02:53:51;100943.41;;;19.27;94.38
79463;BME280;68931;47.286;18.756;2023-08-20T02:54:23;100949.44;;;19.29;95.00
79463;BME280;68931;47.286;18.756;2023-08-20T02:54:57;100940.31;;;19.22;94.77
79463;BME280;68931;47.286;18.756;2023-08-20T02:55:30;100950.16;;;19.31;94.60
79463;BME280;68931;47.286;18.756;2023-08-20T02:56:02;100949.31;;;19.30;94.91
79463;BME280;68931;47.286;18.756;2023-08-20T02:56:35;100954.63;;;19.30;94.46
79463;BME280;68931;47.286;18.756;2023-08-20T02:57:07;100944.25;;;19.27;94.89
79463;BME280;68931;47.286;18.756;2023-08-20T02:57:39;100920.91;;;19.10;94.97